Terminal Aerodrome Forecast
Issued by NWS San Angelo, TX

Home | Current Version | Previous Version | Text Only | Print | Product List | Glossary On
Versions: 1 2 3 4 5 6 7 8 9 10 11 12 13 14 15 16 17 18 19 20 21 22 23 24 25 26 27 28 29
000
FTUS44 KSJT 050531
TAFABI
TAF
KABI 050531Z 0506/0606 18005KT P6SM BKN120 OVC250
      TEMPO 0509/0512 OVC018
     FM051200 17003KT 4SM BR OVC018
     FM051500 18004KT 4SM -DZ BR OVC018
     FM051800 22007KT P6SM OVC020
     FM052100 22009KT P6SM BKN250=

USA.gov is the U.S. government's official web portal to all federal, state and local government web resources and services.